createdAt,value
2018-02-23T00:01:54.136Z,93788.56
2018-02-23T00:04:21.978Z,93788.23
2018-02-23T00:06:50.074Z,93782.94
2018-02-23T00:09:18.842Z,93786.02
2018-02-23T00:11:47.398Z,93779.98
2018-02-23T00:14:15.937Z,93783.66
2018-02-23T00:16:43.767Z,93785.52
2018-02-23T00:19:11.471Z,93782.92
2018-02-23T00:21:39.256Z,93781.00
2018-02-23T00:24:07.023Z,93782.41
2018-02-23T00:26:34.794Z,93780.75
2018-02-23T00:29:03.335Z,93787.58
2018-02-23T00:31:31.052Z,93783.87
2018-02-23T00:33:58.786Z,93785.72
2018-02-23T00:36:28.125Z,93785.23
2018-02-23T00:38:55.807Z,93786.83
2018-02-23T00:41:24.346Z,93783.94
2018-02-23T00:43:52.056Z,93787.53
2018-02-23T00:46:19.845Z,93794.39
2018-02-23T00:48:47.796Z,93790.98
2018-02-23T00:51:15.562Z,93794.56
2018-02-23T00:53:44.055Z,93791.88
2018-02-23T00:56:11.763Z,93792.25
2018-02-23T00:58:39.504Z,93789.89
2018-02-23T01:01:07.294Z,93792.92
2018-02-23T01:03:35.855Z,93789.56
2018-02-23T01:06:03.640Z,93785.97
2018-02-23T01:08:31.451Z,93789.91
2018-02-23T01:10:59.182Z,93788.89
2018-02-23T01:13:26.895Z,93781.44
2018-02-23T01:15:56.412Z,93780.78
2018-02-23T01:18:30.661Z,93780.19
2018-02-23T01:20:58.388Z,93781.55
2018-02-23T01:23:26.356Z,93782.50
2018-02-23T01:25:56.698Z,93779.88
2018-02-23T01:28:27.169Z,93771.77
2018-02-23T01:30:59.141Z,93770.90
2018-02-23T01:33:28.831Z,93771.16
2018-02-23T01:35:57.763Z,93767.13
2018-02-23T01:38:34.142Z,93760.41
2018-02-23T01:41:04.957Z,93762.04
2018-02-23T01:43:50.678Z,93764.72
2018-02-23T01:46:22.141Z,93762.55
2018-02-23T01:48:50.710Z,93758.74
2018-02-23T01:51:22.013Z,93757.45
2018-02-23T01:53:53.938Z,93753.78
2018-02-23T01:56:22.992Z,93758.72
2018-02-23T01:58:56.590Z,93758.14
2018-02-23T02:01:31.417Z,93756.55
2018-02-23T02:04:02.027Z,93750.80
2018-02-23T02:06:43.198Z,93745.10
2018-02-23T02:13:27.925Z,93743.18
2018-02-23T02:16:08.187Z,93742.75
2018-02-23T02:18:53.735Z,93746.67
2018-02-23T02:24:41.575Z,93752.73
2018-02-23T02:27:13.791Z,93753.28
2018-02-23T05:14:07.991Z,93735.58
2018-02-23T05:33:30.828Z,93737.64
2018-02-23T05:59:59.562Z,93742.91
2018-02-23T06:10:07.154Z,93759.13
2018-02-23T06:12:46.600Z,93761.02
2018-02-23T06:31:54.364Z,93767.05
2018-02-23T07:45:07.352Z,93789.86
2018-02-23T07:51:15.257Z,93798.95
2018-02-23T07:57:22.341Z,93812.95
2018-02-23T08:12:12.407Z,93828.23
2018-02-23T08:22:44.555Z,93821.69
2018-02-23T08:25:24.121Z,93823.34
2018-02-23T08:27:56.631Z,93815.09
2018-02-23T08:31:06.126Z,93816.34
2018-02-23T08:33:45.070Z,93810.80
2018-02-23T08:36:15.966Z,93818.92
2018-02-23T08:38:44.194Z,93820.02
2018-02-23T08:41:16.898Z,93816.67
2018-02-23T08:43:46.160Z,93820.02
2018-02-23T08:46:17.701Z,93818.34
2018-02-23T08:48:47.252Z,93825.86
2018-02-23T08:51:16.341Z,93825.88
2018-02-23T08:53:45.673Z,93813.45
2018-02-23T08:56:13.693Z,93817.54
2018-02-23T08:58:42.743Z,93820.55
2018-02-23T09:01:11.221Z,93811.67
2018-02-23T09:03:39.505Z,93813.09
2018-02-23T09:06:08.418Z,93814.31
2018-02-23T09:08:37.320Z,93817.23
2018-02-23T09:11:05.559Z,93817.69
2018-02-23T09:13:34.140Z,93819.82
2018-02-23T09:16:03.035Z,93824.59
2018-02-23T09:18:31.108Z,93824.45
2018-02-23T09:21:00.590Z,93817.11
2018-02-23T09:23:29.601Z,93813.21
2018-02-23T09:25:58.037Z,93815.84
2018-02-23T09:28:25.762Z,93812.64
2018-02-23T09:30:53.536Z,93818.19
2018-02-23T09:33:21.449Z,93810.64
2018-02-23T09:35:50.062Z,93805.84
2018-02-23T09:38:19.161Z,93804.73
2018-02-23T09:40:47.044Z,93804.89
2018-02-23T09:43:15.198Z,93804.02
2018-02-23T09:45:43.278Z,93791.07
2018-02-23T09:48:12.367Z,93797.20
2018-02-23T09:50:40.652Z,93793.07
2018-02-23T09:53:09.547Z,93789.95
2018-02-23T09:55:37.556Z,93794.14
2018-02-23T09:58:06.090Z,93786.50
2018-02-23T10:00:34.767Z,93783.06
2018-02-23T10:03:02.764Z,93776.64
2018-02-23T10:05:31.401Z,93778.78
2018-02-23T10:07:59.590Z,93774.96
2018-02-23T10:10:28.396Z,93774.49
2018-02-23T10:12:56.342Z,93760.30
2018-02-23T10:15:24.363Z,93764.84
2018-02-23T10:17:52.262Z,93764.41
2018-02-23T10:20:20.077Z,93761.42
2018-02-23T10:22:47.780Z,93763.64
2018-02-23T10:25:15.662Z,93766.47
2018-02-23T10:27:43.848Z,93756.34
2018-02-23T10:30:11.945Z,93754.41
2018-02-23T10:32:40.335Z,93750.89
2018-02-23T10:35:08.280Z,93754.98
2018-02-23T10:37:36.878Z,93759.81
2018-02-23T10:40:05.759Z,93753.33
2018-02-23T10:42:33.844Z,93755.10
2018-02-23T10:45:01.993Z,93750.77
2018-02-23T10:47:29.861Z,93752.63
2018-02-23T10:49:57.730Z,93754.89
2018-02-23T10:52:25.893Z,93750.27
2018-02-23T10:54:54.611Z,93751.50
2018-02-23T10:57:23.007Z,93748.39
2018-02-23T10:59:51.981Z,93755.96
2018-02-23T11:02:19.952Z,93755.52
2018-02-23T11:04:48.053Z,93754.53
2018-02-23T11:07:16.202Z,93750.49
2018-02-23T11:09:44.096Z,93736.15
2018-02-23T11:12:13.471Z,93739.50
2018-02-23T11:14:41.603Z,93734.53
2018-02-23T11:17:09.791Z,93736.32
2018-02-23T11:19:37.786Z,93737.29
2018-02-23T11:22:05.652Z,93743.97
2018-02-23T11:24:33.543Z,93752.13
2018-02-23T11:27:02.083Z,93743.64
2018-02-23T11:29:29.827Z,93741.74
2018-02-23T11:31:58.914Z,93746.11
2018-02-23T11:34:26.935Z,93738.99
2018-02-23T11:36:54.926Z,93741.39
2018-02-23T11:39:23.545Z,93746.09
2018-02-23T11:41:51.558Z,93751.06
2018-02-23T11:44:20.850Z,93745.56
2018-02-23T11:46:48.636Z,93748.66
2018-02-23T11:49:16.700Z,93741.34
2018-02-23T11:51:44.626Z,93737.31
2018-02-23T11:54:12.819Z,93735.04
2018-02-23T11:56:41.630Z,93731.97
2018-02-23T11:59:09.577Z,93718.72
2018-02-23T12:01:37.750Z,93726.92
2018-02-23T12:04:08.660Z,93718.25
2018-02-23T12:06:36.989Z,93718.58
2018-02-23T12:09:05.273Z,93712.33
2018-02-23T12:11:33.338Z,93715.14
2018-02-23T12:14:01.310Z,93715.77
2018-02-23T12:16:29.278Z,93716.69
2018-02-23T12:18:57.346Z,93714.27
2018-02-23T12:21:25.357Z,93710.51
2018-02-23T12:23:53.547Z,93704.11
2018-02-23T12:26:21.401Z,93700.07
2018-02-23T12:28:49.332Z,93695.41
2018-02-23T12:31:17.087Z,93705.24
2018-02-23T12:33:44.974Z,93688.88
2018-02-23T12:36:13.187Z,93684.58
2018-02-23T12:38:40.954Z,93686.86
2018-02-23T12:41:08.773Z,93675.34
2018-02-23T12:43:36.613Z,93682.12
2018-02-23T12:46:04.478Z,93683.84
2018-02-23T12:48:32.262Z,93678.25
2018-02-23T12:50:59.963Z,93672.64
2018-02-23T12:53:27.721Z,93671.14
2018-02-23T12:55:55.422Z,93674.45
2018-02-23T12:58:23.162Z,93682.54
2018-02-23T13:00:50.995Z,93680.04
2018-02-23T13:03:18.782Z,93685.34
2018-02-23T13:05:46.946Z,93681.14
2018-02-23T13:08:14.839Z,93690.03
2018-02-23T13:10:42.793Z,93687.28
2018-02-23T13:13:10.985Z,93685.53
2018-02-23T13:15:39.058Z,93692.79
2018-02-23T13:18:06.775Z,93688.01
2018-02-23T13:20:34.560Z,93685.98
2018-02-23T13:23:02.356Z,93689.95
2018-02-23T13:25:30.170Z,93686.69
2018-02-23T13:28:03.340Z,93692.73
2018-02-23T13:30:31.935Z,93692.83
2018-02-23T13:32:59.954Z,93691.56
2018-02-23T13:35:28.877Z,93694.72
2018-02-23T13:37:56.774Z,93695.94
2018-02-23T13:40:24.683Z,93700.70
2018-02-23T13:42:52.719Z,93695.15
2018-02-23T13:45:20.832Z,93697.64
2018-02-23T13:47:49.062Z,93698.75
2018-02-23T13:50:17.804Z,93695.58
2018-02-23T13:52:45.928Z,93687.95
2018-02-23T13:55:14.006Z,93696.30
2018-02-23T13:57:42.069Z,93692.09
2018-02-23T14:00:10.862Z,93689.66
2018-02-23T14:02:39.882Z,93694.92
2018-02-23T14:05:07.778Z,93696.27
2018-02-23T14:07:35.788Z,93701.14
2018-02-23T14:10:04.433Z,93701.11
2018-02-23T14:12:32.524Z,93694.98
2018-02-23T14:15:00.454Z,93689.59
2018-02-23T14:17:28.527Z,93687.48
2018-02-23T14:19:56.905Z,93684.73
2018-02-23T14:22:24.952Z,93684.89
2018-02-23T14:24:53.053Z,93677.63
2018-02-23T14:27:21.540Z,93686.78
2018-02-23T14:29:49.563Z,93687.55
2018-02-23T14:32:17.591Z,93682.89
2018-02-23T14:34:45.444Z,93688.84
2018-02-23T14:37:13.779Z,93689.02
2018-02-23T14:39:41.790Z,93694.08
2018-02-23T14:42:09.781Z,93698.33
2018-02-23T14:44:38.100Z,93695.42
2018-02-23T14:47:06.130Z,93695.91
2018-02-23T14:49:34.249Z,93700.57
2018-02-23T14:52:02.427Z,93697.11
2018-02-23T14:54:30.838Z,93703.72
2018-02-23T14:56:59.220Z,93702.66
2018-02-23T14:59:27.202Z,93708.19
2018-02-23T15:01:56.034Z,93701.94
2018-02-23T15:04:24.029Z,93707.31
2018-02-23T15:06:52.791Z,93714.99
2018-02-23T15:09:20.741Z,93714.17
2018-02-23T15:11:49.754Z,93717.83
2018-02-23T15:14:17.664Z,93720.20
2018-02-23T15:16:45.637Z,93718.61
2018-02-23T15:19:14.511Z,93724.02
2018-02-23T15:21:42.661Z,93726.16
2018-02-23T15:24:10.782Z,93721.45
2018-02-23T15:26:38.649Z,93727.02
2018-02-23T15:29:06.756Z,93724.37
2018-02-23T15:31:46.596Z,93724.42
2018-02-23T15:34:14.630Z,93731.48
2018-02-23T15:36:42.576Z,93728.91
2018-02-23T15:39:10.373Z,93728.69
2018-02-23T15:41:38.491Z,93729.51
2018-02-23T15:44:07.306Z,93724.28
2018-02-23T15:46:35.349Z,93740.66
2018-02-23T15:49:08.967Z,93738.95
2018-02-23T15:51:52.653Z,93736.92
2018-02-23T15:54:20.674Z,93738.31
2018-02-23T15:56:48.779Z,93741.96
2018-02-23T15:59:17.254Z,93744.20
2018-02-23T16:01:45.312Z,93748.16
2018-02-23T16:04:13.442Z,93754.17
2018-02-23T16:06:41.707Z,93748.97
2018-02-23T16:09:09.842Z,93755.22
2018-02-23T16:11:38.238Z,93755.64
2018-02-23T16:14:07.026Z,93754.31
2018-02-23T16:16:36.077Z,93758.77
2018-02-23T16:19:04.248Z,93764.61
2018-02-23T16:21:32.529Z,93759.29
2018-02-23T16:24:01.322Z,93765.04
2018-02-23T16:26:29.322Z,93769.56
2018-02-23T16:28:57.397Z,93777.36
2018-02-23T16:31:25.181Z,93775.62
2018-02-23T16:33:52.952Z,93780.09
2018-02-23T16:36:20.689Z,93773.62
2018-02-23T16:38:48.543Z,93783.44
2018-02-23T16:41:16.492Z,93780.94
2018-02-23T16:43:44.209Z,93784.66
2018-02-23T16:46:12.054Z,93782.42
2018-02-23T16:48:39.886Z,93789.55
2018-02-23T16:51:07.595Z,93795.51
2018-02-23T16:53:35.357Z,93797.98
2018-02-23T16:56:03.077Z,93798.98
2018-02-23T16:58:30.852Z,93800.01
2018-02-23T17:00:58.810Z,93802.63
2018-02-23T17:03:26.889Z,93802.23
2018-02-23T17:05:54.588Z,93809.96
2018-02-23T17:08:22.386Z,93823.14
2018-02-23T17:10:50.130Z,93826.58
2018-02-23T17:13:17.940Z,93829.58
2018-02-23T17:15:45.766Z,93831.17
2018-02-23T17:18:13.581Z,93823.16
2018-02-23T17:20:41.353Z,93827.50
2018-02-23T17:23:09.345Z,93827.72
2018-02-23T17:25:37.424Z,93833.13
2018-02-23T17:28:05.164Z,93843.42
2018-02-23T17:30:32.873Z,93848.24
2018-02-23T17:33:00.845Z,93849.00
2018-02-23T17:35:28.790Z,93853.77
2018-02-23T17:37:56.656Z,93851.10
2018-02-23T17:40:24.392Z,93851.57
2018-02-23T17:42:52.164Z,93842.09
2018-02-23T17:45:19.887Z,93841.88
2018-02-23T17:47:47.619Z,93834.23
2018-02-23T17:50:15.446Z,93837.91
2018-02-23T17:52:43.168Z,93835.24
2018-02-23T17:55:11.929Z,93834.70
2018-02-23T17:57:39.796Z,93840.71
2018-02-23T18:00:07.553Z,93844.88
2018-02-23T18:02:35.337Z,93848.75
2018-02-23T18:05:03.257Z,93851.09
2018-02-23T18:07:31.889Z,93842.67
2018-02-23T18:09:59.854Z,93837.28
2018-02-23T18:12:27.614Z,93836.47
2018-02-23T18:14:55.397Z,93835.00
2018-02-23T18:17:23.197Z,93835.59
2018-02-23T18:19:50.979Z,93835.87
2018-02-23T18:22:18.738Z,93840.77
2018-02-23T18:24:46.483Z,93846.08
2018-02-23T18:27:14.273Z,93844.87
2018-02-23T18:29:42.042Z,93841.38
2018-02-23T18:32:09.821Z,93841.56
2018-02-23T18:34:37.581Z,93838.25
2018-02-23T18:37:05.596Z,93836.71
2018-02-23T18:39:33.691Z,93836.42
2018-02-23T18:42:01.643Z,93839.72
2018-02-23T18:44:30.426Z,93842.58
2018-02-23T18:46:58.988Z,93842.84
2018-02-23T18:49:27.377Z,93840.75
2018-02-23T18:51:55.250Z,93838.50
2018-02-23T18:54:24.180Z,93842.17
2018-02-23T18:56:54.530Z,93842.75
2018-02-23T18:59:22.301Z,93835.89
2018-02-23T19:01:50.056Z,93832.97
2018-02-23T19:04:19.303Z,93838.97
2018-02-23T19:06:47.109Z,93835.44
2018-02-23T19:09:15.152Z,93839.45
2018-02-23T19:11:42.939Z,93842.91
2018-02-23T19:14:10.933Z,93844.90
2018-02-23T19:16:38.912Z,93843.95
2018-02-23T19:19:06.668Z,93844.22
2018-02-23T19:21:34.509Z,93850.73
2018-02-23T19:24:02.682Z,93854.31
2018-02-23T19:26:30.500Z,93860.20
2018-02-23T19:28:58.336Z,93864.01
2018-02-23T19:31:26.593Z,93858.28
2018-02-23T19:33:55.645Z,93863.57
2018-02-23T19:36:23.758Z,93865.25
2018-02-23T19:38:51.894Z,93859.56
2018-02-23T19:41:22.132Z,93862.67
2018-02-23T19:43:50.807Z,93869.30
2018-02-23T19:46:22.846Z,93865.04
2018-02-23T19:48:52.319Z,93866.41
2018-02-23T19:51:20.331Z,93868.69
2018-02-23T19:53:49.339Z,93865.19
2018-02-23T19:56:18.166Z,93867.70
2018-02-23T19:58:47.066Z,93866.09
2018-02-23T20:01:14.922Z,93866.60
2018-02-23T20:03:42.824Z,93867.00
2018-02-23T20:06:13.752Z,93866.91
2018-02-23T20:08:42.747Z,93867.09
2018-02-23T20:11:11.515Z,93872.23
2018-02-23T20:13:40.052Z,93868.71
2018-02-23T20:16:10.960Z,93864.32
2018-02-23T20:18:40.259Z,93861.08
2018-02-23T20:21:08.981Z,93865.55
2018-02-23T20:23:37.827Z,93864.80
2018-02-23T20:26:05.718Z,93864.50
2018-02-23T20:28:34.287Z,93861.05
2018-02-23T20:31:04.281Z,93858.81
2018-02-23T20:33:32.286Z,93858.63
2018-02-23T20:36:00.252Z,93867.45
2018-02-23T20:38:29.737Z,93864.47
2018-02-23T20:40:57.816Z,93861.73
2018-02-23T20:43:26.162Z,93862.47
2018-02-23T20:45:54.224Z,93861.52
2018-02-23T20:48:22.419Z,93858.05
2018-02-23T20:50:50.810Z,93863.41
2018-02-23T20:53:18.624Z,93863.58
2018-02-23T20:55:46.391Z,93864.30
2018-02-23T20:58:14.172Z,93868.02
2018-02-23T21:00:41.929Z,93859.86
2018-02-23T21:03:10.565Z,93860.67
2018-02-23T21:05:38.323Z,93861.09
2018-02-23T21:08:06.123Z,93863.89
2018-02-23T21:10:33.893Z,93867.22
2018-02-23T21:13:01.611Z,93865.84
2018-02-23T21:15:29.414Z,93861.84
2018-02-23T21:17:57.389Z,93867.42
2018-02-23T21:20:25.783Z,93875.67
2018-02-23T21:22:53.544Z,93877.68
2018-02-23T21:25:21.330Z,93878.23
2018-02-23T21:27:49.140Z,93885.31
2018-02-23T21:30:16.829Z,93878.54
2018-02-23T21:32:44.590Z,93882.06
2018-02-23T21:35:13.000Z,93873.18
2018-02-23T21:37:40.692Z,93872.00
2018-02-23T21:40:08.639Z,93876.45
2018-02-23T21:42:36.406Z,93877.27
2018-02-23T21:45:04.244Z,93882.66
2018-02-23T21:47:32.032Z,93882.66
2018-02-23T21:50:01.098Z,93869.69
2018-02-23T21:52:28.843Z,93874.32
2018-02-23T21:54:56.604Z,93875.59
2018-02-23T21:57:24.370Z,93869.45
2018-02-23T21:59:52.103Z,93871.09
2018-02-23T22:02:19.872Z,93872.17
2018-02-23T22:04:47.678Z,93869.09
2018-02-23T22:07:15.432Z,93872.16
2018-02-23T22:09:43.162Z,93866.91
2018-02-23T22:12:10.876Z,93872.56
2018-02-23T22:14:39.440Z,93869.17
2018-02-23T22:17:07.173Z,93869.49
2018-02-23T22:19:34.844Z,93866.22
2018-02-23T22:22:02.626Z,93862.98
2018-02-23T22:24:31.548Z,93861.22
2018-02-23T22:26:59.272Z,93856.88
2018-02-23T22:29:27.148Z,93864.75
2018-02-23T22:31:54.924Z,93865.42
2018-02-23T22:34:23.326Z,93869.73
2018-02-23T22:36:51.107Z,93875.98
2018-02-23T22:39:18.936Z,93869.44
2018-02-23T22:41:46.632Z,93873.27
2018-02-23T22:44:14.668Z,93878.84
2018-02-23T22:46:42.923Z,93888.19
2018-02-23T22:49:10.698Z,93885.72
2018-02-23T22:51:38.488Z,93883.23
2018-02-23T22:54:06.192Z,93896.64
2018-02-23T22:56:33.968Z,93891.38
2018-02-23T22:59:01.674Z,93892.48
2018-02-23T23:01:29.480Z,93893.45
2018-02-23T23:03:57.182Z,93898.70
2018-02-23T23:06:24.941Z,93889.47
2018-02-23T23:08:52.695Z,93892.40
2018-02-23T23:11:20.474Z,93887.87
2018-02-23T23:13:48.251Z,93886.02
2018-02-23T23:16:16.012Z,93887.53
2018-02-23T23:18:43.728Z,93888.17
2018-02-23T23:21:11.512Z,93890.09
2018-02-23T23:23:39.263Z,93888.34
2018-02-23T23:26:06.965Z,93887.39
2018-02-23T23:28:36.712Z,93883.16
2018-02-23T23:31:04.414Z,93881.16
2018-02-23T23:33:32.211Z,93882.59
2018-02-23T23:35:59.959Z,93886.13
2018-02-23T23:38:27.723Z,93883.81
2018-02-23T23:40:55.469Z,93875.03
2018-02-23T23:43:23.317Z,93874.63
2018-02-23T23:45:51.073Z,93873.91
2018-02-23T23:48:18.770Z,93876.87
2018-02-23T23:50:46.627Z,93879.87
2018-02-23T23:53:14.356Z,93880.59
2018-02-23T23:55:42.108Z,93886.19
2018-02-23T23:58:09.835Z,93880.53
